Terminal Aerodrome Forecast
Issued by NWS Billings, MT

Home | Current Version | Previous Version | Graphics & Text | Print | Product List | Glossary On
Versions: 1 2 3 4 5 6 7 8 9 10 11 12 13 14 15 16 17 18 19 20 21 22 23 24 25 26 27 28 29 30 31 32
000
FTUS45 KBYZ 250522
TAFMLS
TAF
KMLS 250522Z 2506/2606 VRB05KT P6SM FEW040 SCT100
     FM250800 VRB05KT P6SM VCSH SCT040 BKN100 WS020/18040KT
     FM251400 VRB05KT P6SM VCSH BKN030 OVC070
     FM251700 28013KT 4SM -SHRA BR SCT008 OVC020
     FM260100 28010KT P6SM SCT020 BKN100=

USA.gov is the U.S. government's official web portal to all federal, state and local government web resources and services.